Time;durP1;ratioP1;P1;durP2;ratioP2;P2;SDS_P1;SDS_P2;PMS_P1;PMS_P2;Temp;Humidity;BMP_temperature;BMP_pressure;BME280_temperature;BME280_humidity;BME280_pressure;Samples;Min_cycle;Max_cycle;Signal;HPM_P1;HPM_P2
2022/07/02 00:01:05;;;;;;;4.43;2.60;;;14.60;66.50;;;;;;5006502;28;20263;-76
2022/07/02 00:03:36;;;;;;;5.97;2.33;;;14.60;68.50;;;;;;5007504;28;20334;-76
2022/07/02 00:06:05;;;;;;;6.53;2.80;;;14.40;68.40;;;;;;5019557;28;20044;-76
2022/07/02 00:08:31;;;;;;;2.47;2.00;;;14.40;67.50;;;;;;5001699;28;20111;-76
2022/07/02 00:10:57;;;;;;;3.08;2.40;;;14.40;67.50;;;;;;5020545;28;20120;-76
2022/07/02 00:13:23;;;;;;;3.03;2.30;;;14.40;69.20;;;;;;5019495;28;20402;-76
2022/07/02 00:15:49;;;;;;;3.13;1.77;;;14.50;68.40;;;;;;5004202;28;20159;-76
2022/07/02 00:18:15;;;;;;;6.22;3.58;;;14.50;68.40;;;;;;5019302;28;20130;-76
2022/07/02 00:20:43;;;;;;;6.35;3.22;;;14.40;67.80;;;;;;5018662;28;20104;-76
2022/07/02 00:23:09;;;;;;;3.78;2.08;;;14.20;70.10;;;;;;5017445;28;20091;-76
2022/07/02 00:25:40;;;;;;;5.82;2.85;;;14.20;68.40;;;;;;5002613;28;20033;-77
2022/07/02 00:28:06;;;;;;;5.40;3.30;;;14.10;69.00;;;;;;5024729;28;20037;-75
2022/07/02 00:30:32;;;;;;;9.20;2.88;;;14.00;70.80;;;;;;5022174;28;20345;-76
2022/07/02 00:32:57;;;;;;;4.25;2.92;;;14.00;69.00;;;;;;5010200;28;20572;-76
2022/07/02 00:35:23;;;;;;;7.30;3.17;;;13.90;72.10;;;;;;5020944;28;20112;-76
2022/07/02 00:37:48;;;;;;;4.55;3.22;;;13.80;69.00;;;;;;5009526;28;20120;-76
2022/07/02 00:40:14;;;;;;;6.25;2.97;;;13.80;69.20;;;;;;4991667;28;20033;-75
2022/07/02 00:42:40;;;;;;;3.88;2.55;;;13.70;70.00;;;;;;5021862;28;20154;-76
2022/07/02 00:45:05;;;;;;;6.63;2.80;;;13.60;69.30;;;;;;5023015;28;20037;-76
2022/07/02 00:47:31;;;;;;;5.00;3.10;;;13.60;69.50;;;;;;5008646;28;20036;-76
2022/07/02 00:49:56;;;;;;;7.15;3.58;;;13.50;71.00;;;;;;5008429;28;20026;-76
2022/07/02 00:52:22;;;;;;;4.13;2.63;;;13.50;69.60;;;;;;5041078;28;20132;-77
2022/07/02 00:54:48;;;;;;;5.10;3.33;;;13.50;70.50;;;;;;5035379;28;20017;-77
2022/07/02 00:57:13;;;;;;;6.72;3.22;;;13.30;72.30;;;;;;5010958;28;20045;-75
2022/07/02 00:59:39;;;;;;;6.57;3.00;;;13.30;72.80;;;;;;5008063;28;20055;-75
2022/07/02 01:02:06;;;;;;;3.67;2.45;;;13.30;71.20;;;;;;5021800;28;20065;-77
2022/07/02 01:04:32;;;;;;;5.32;2.53;;;13.40;70.00;;;;;;5022598;28;20124;-76
2022/07/02 01:07:03;;;;;;;6.57;2.90;;;13.30;69.60;;;;;;5002607;28;20501;-77
2022/07/02 01:12:24;;;;;;;6.57;3.53;;;13.10;73.00;;;;;;5025211;28;20040;-76
2022/07/02 01:14:50;;;;;;;5.55;3.10;;;13.00;75.40;;;;;;5007231;28;20033;-76
2022/07/02 01:17:16;;;;;;;3.83;3.15;;;13.00;74.50;;;;;;5011156;28;20087;-76
2022/07/02 01:19:41;;;;;;;4.05;3.28;;;13.00;74.10;;;;;;5018481;28;20033;-76
2022/07/02 01:22:14;;;;;;;6.68;2.90;;;13.00;71.80;;;;;;5023136;28;20401;-76
2022/07/02 01:24:40;;;;;;;4.57;3.17;;;13.10;72.10;;;;;;5022686;28;20060;-77
2022/07/02 01:27:05;;;;;;;6.65;3.20;;;13.10;73.50;;;;;;5006033;28;20120;-75
2022/07/02 01:29:31;;;;;;;3.22;2.92;;;13.00;72.80;;;;;;4994105;28;20207;-76
2022/07/02 01:31:56;;;;;;;4.93;2.75;;;12.90;74.10;;;;;;5006041;28;20044;-76
2022/07/02 01:34:22;;;;;;;6.85;2.95;;;12.90;71.80;;;;;;5011548;28;20036;-78
2022/07/02 01:36:48;;;;;;;4.43;2.80;;;12.90;71.40;;;;;;5003448;28;20528;-76
2022/07/02 01:39:13;;;;;;;5.85;3.00;;;12.80;73.70;;;;;;5008402;28;20404;-76
2022/07/02 01:41:39;;;;;;;5.95;3.15;;;12.70;73.10;;;;;;5020910;28;20033;-76
2022/07/02 01:44:08;;;;;;;7.40;3.33;;;12.70;75.60;;;;;;5007678;28;20033;-75
2022/07/02 01:46:34;;;;;;;3.95;3.17;;;12.60;76.00;;;;;;5008776;28;20033;-74
2022/07/02 01:48:59;;;;;;;6.22;3.03;;;12.50;77.50;;;;;;5020847;28;20026;-76
2022/07/02 01:51:25;;;;;;;6.28;3.22;;;12.60;76.00;;;;;;5018004;28;20041;-76
2022/07/02 01:53:50;;;;;;;4.68;2.92;;;12.50;76.80;;;;;;5023870;28;20542;-75
2022/07/02 01:56:16;;;;;;;4.40;3.45;;;12.40;79.90;;;;;;5023395;28;20476;-75
2022/07/02 01:58:42;;;;;;;6.45;3.30;;;12.30;78.30;;;;;;5040866;28;20452;-76
2022/07/02 02:01:07;;;;;;;5.90;3.83;;;12.30;79.00;;;;;;5006682;28;20064;-76
2022/07/02 02:03:33;;;;;;;5.57;3.03;;;12.30;79.90;;;;;;5022961;28;20183;-76
2022/07/02 02:05:58;;;;;;;5.95;3.45;;;12.40;76.80;;;;;;5024003;28;20033;-76
2022/07/02 02:08:24;;;;;;;5.80;2.92;;;12.50;77.40;;;;;;5023132;28;20045;-76
2022/07/02 02:10:49;;;;;;;3.33;2.22;;;12.50;75.20;;;;;;5037516;28;20040;-76
2022/07/02 02:13:15;;;;;;;6.82;2.92;;;12.50;75.20;;;;;;5017199;28;20033;-75
2022/07/02 02:15:40;;;;;;;3.58;3.03;;;12.50;74.80;;;;;;5007376;28;20083;-76
2022/07/02 02:18:06;;;;;;;4.03;2.78;;;12.50;76.70;;;;;;5022878;28;20146;-76
2022/07/02 02:20:31;;;;;;;3.50;2.42;;;12.50;76.80;;;;;;5023883;28;20056;-76
2022/07/02 02:22:57;;;;;;;2.55;2.25;;;12.50;77.00;;;;;;5003205;28;20121;-76
2022/07/02 02:25:23;;;;;;;3.63;3.33;;;12.50;80.10;;;;;;5019625;28;20090;-76
2022/07/02 02:27:50;;;;;;;6.80;2.95;;;12.60;79.80;;;;;;5005268;28;20041;-76
2022/07/02 02:30:15;;;;;;;3.97;3.30;;;12.50;80.20;;;;;;5021370;28;20029;-75
2022/07/02 02:32:41;;;;;;;4.22;2.92;;;12.30;82.50;;;;;;5041152;28;20037;-76
2022/07/02 02:35:07;;;;;;;4.85;3.40;;;12.30;83.60;;;;;;5038567;28;20075;-75
2022/07/02 02:37:32;;;;;;;11.38;4.03;;;12.30;83.70;;;;;;5005536;28;20032;-75
2022/07/02 02:39:58;;;;;;;6.82;3.35;;;12.20;86.30;;;;;;5022407;28;20299;-75
2022/07/02 02:42:23;;;;;;;4.65;3.95;;;12.20;86.60;;;;;;5005027;28;20031;-76
2022/07/02 02:44:49;;;;;;;5.95;3.13;;;12.10;86.10;;;;;;5023486;28;20112;-75
2022/07/02 02:47:14;;;;;;;7.78;3.45;;;12.10;90.50;;;;;;5024713;28;20032;-75
2022/07/02 02:49:40;;;;;;;7.20;4.05;;;12.00;90.70;;;;;;5006665;28;20052;-79
2022/07/02 02:52:06;;;;;;;5.35;3.55;;;11.90;87.60;;;;;;5023149;28;20036;-76
2022/07/02 02:54:32;;;;;;;5.20;3.33;;;11.90;90.50;;;;;;5036109;28;20400;-76
2022/07/02 02:56:57;;;;;;;6.85;3.60;;;11.80;93.80;;;;;;5022102;28;20036;-73
2022/07/02 02:59:23;;;;;;;5.28;3.17;;;11.80;92.10;;;;;;5024914;28;20025;-73
2022/07/02 03:01:48;;;;;;;5.70;3.75;;;11.90;90.30;;;;;;5022184;28;20136;-75
2022/07/02 03:04:14;;;;;;;5.97;3.35;;;11.90;89.80;;;;;;5007600;28;20037;-76
2022/07/02 03:06:39;;;;;;;5.25;3.58;;;11.90;92.80;;;;;;5021541;28;20047;-76
2022/07/02 03:09:05;;;;;;;9.15;3.67;;;11.80;92.60;;;;;;5018244;28;20041;-76
2022/07/02 03:11:31;;;;;;;4.68;3.55;;;11.80;94.10;;;;;;5025179;28;20484;-77
2022/07/02 03:13:57;;;;;;;7.95;3.80;;;11.70;94.80;;;;;;5020411;28;20039;-77
2022/07/02 03:16:23;;;;;;;4.30;3.58;;;11.70;94.20;;;;;;5010852;28;20131;-76
2022/07/02 03:18:48;;;;;;;4.22;3.33;;;11.70;93.70;;;;;;5021032;28;20040;-77
2022/07/02 03:21:14;;;;;;;4.72;4.00;;;11.70;92.80;;;;;;5024802;28;20056;-77
2022/07/02 03:23:39;;;;;;;7.90;4.05;;;11.60;94.90;;;;;;5025850;28;20036;-77
2022/07/02 03:26:05;;;;;;;4.93;4.18;;;11.60;95.20;;;;;;5022906;28;20317;-76
2022/07/02 03:28:30;;;;;;;6.65;4.30;;;11.50;96.00;;;;;;5021577;28;20036;-77
2022/07/02 03:30:56;;;;;;;5.13;4.43;;;11.50;97.40;;;;;;5020828;28;20034;-77
2022/07/02 03:33:22;;;;;;;12.23;4.05;;;11.50;97.90;;;;;;5040661;28;20468;-76
2022/07/02 03:35:48;;;;;;;7.03;3.88;;;11.40;97.40;;;;;;4992467;28;20547;-77
2022/07/02 03:38:13;;;;;;;5.80;4.10;;;11.40;98.00;;;;;;5022408;28;20033;-77
2022/07/02 03:40:39;;;;;;;6.03;3.83;;;11.50;96.50;;;;;;5007618;28;20040;-77
2022/07/02 03:43:04;;;;;;;5.80;4.07;;;11.40;95.60;;;;;;5022238;28;20041;-77
2022/07/02 03:45:30;;;;;;;12.13;4.00;;;11.40;96.40;;;;;;5005391;28;20045;-77
2022/07/02 03:47:56;;;;;;;5.63;4.00;;;11.50;97.10;;;;;;5020837;28;20138;-77
2022/07/02 03:50:21;;;;;;;6.65;4.47;;;11.50;97.70;;;;;;5007016;28;20128;-76
2022/07/02 03:52:47;;;;;;;6.05;3.90;;;11.40;98.80;;;;;;5020710;28;20037;-77
2022/07/02 03:55:12;;;;;;;5.35;4.15;;;11.40;99.90;;;;;;5020211;28;20033;-77
2022/07/02 03:57:38;;;;;;;4.13;3.70;;;11.40;99.90;;;;;;5021224;28;20037;-77
2022/07/02 04:00:05;;;;;;;6.57;3.92;;;11.40;99.70;;;;;;5004578;28;20452;-77
2022/07/02 04:02:30;;;;;;;8.82;4.43;;;11.40;98.50;;;;;;5001692;28;20032;-77
2022/07/02 04:04:56;;;;;;;8.20;4.85;;;11.50;98.30;;;;;;5022559;28;20033;-77
2022/07/02 04:07:21;;;;;;;10.35;4.93;;;11.60;99.90;;;;;;5021446;28;20392;-76
2022/07/02 04:09:47;;;;;;;5.85;4.35;;;11.70;98.40;;;;;;4990417;28;20037;-77
2022/07/02 04:12:12;;;;;;;7.15;4.68;;;11.80;99.40;;;;;;5017382;28;20075;-76
2022/07/02 04:14:38;;;;;;;7.43;5.15;;;11.90;99.10;;;;;;5021537;28;20056;-76
2022/07/02 04:17:05;;;;;;;9.13;4.93;;;12.10;99.90;;;;;;5022936;28;20029;-76
2022/07/02 04:19:30;;;;;;;6.95;4.88;;;12.20;99.50;;;;;;5021607;28;20032;-76
2022/07/02 04:21:56;;;;;;;11.25;4.65;;;12.40;99.90;;;;;;5003933;28;20517;-76
2022/07/02 04:24:21;;;;;;;6.20;4.30;;;12.60;98.20;;;;;;5020848;28;20071;-76
2022/07/02 04:26:47;;;;;;;9.43;4.15;;;12.70;96.20;;;;;;5021808;28;20033;-76
2022/07/02 04:29:12;;;;;;;7.20;3.97;;;12.90;95.20;;;;;;5022385;28;20029;-76
2022/07/02 04:31:38;;;;;;;5.97;3.20;;;13.10;94.80;;;;;;5004115;28;20048;-76
2022/07/02 04:34:03;;;;;;;4.68;3.40;;;13.30;94.80;;;;;;5041208;28;20140;-76
2022/07/02 04:36:29;;;;;;;6.72;2.97;;;13.40;94.70;;;;;;5009220;28;20056;-75
2022/07/02 04:38:54;;;;;;;5.05;3.55;;;13.60;94.90;;;;;;5004479;28;20061;-75
2022/07/02 04:41:20;;;;;;;9.30;3.63;;;13.80;95.10;;;;;;4992807;28;20108;-76
2022/07/02 04:43:45;;;;;;;4.57;3.20;;;14.00;95.40;;;;;;5019051;28;20104;-75
2022/07/02 04:46:11;;;;;;;5.18;3.13;;;14.20;95.00;;;;;;5001055;28;20147;-76
2022/07/02 04:48:37;;;;;;;8.10;3.55;;;14.40;95.00;;;;;;4987965;28;20033;-76
2022/07/02 04:51:02;;;;;;;6.30;2.20;;;14.60;94.80;;;;;;5004860;28;20091;-75
2022/07/02 04:53:28;;;;;;;5.45;2.63;;;14.90;94.20;;;;;;5010542;28;20037;-76
2022/07/02 04:55:53;;;;;;;4.88;2.17;;;15.10;94.40;;;;;;5017833;28;20033;-76
2022/07/02 04:58:19;;;;;;;2.47;1.90;;;15.30;93.20;;;;;;5005725;28;20052;-77
2022/07/02 05:00:44;;;;;;;6.07;2.40;;;15.50;92.70;;;;;;4992101;28;20125;-76
2022/07/02 05:03:10;;;;;;;5.85;2.47;;;15.70;93.60;;;;;;5006158;28;20515;-76
2022/07/02 05:05:35;;;;;;;2.67;1.85;;;16.00;93.40;;;;;;5006491;28;20492;-76
2022/07/02 05:08:01;;;;;;;5.32;2.05;;;16.20;92.30;;;;;;5020697;28;20390;-76
2022/07/02 05:10:26;;;;;;;6.20;2.40;;;16.50;92.60;;;;;;4989689;28;20033;-76
2022/07/02 05:12:55;;;;;;;4.20;2.20;;;16.70;93.50;;;;;;5021616;28;20034;-76
2022/07/02 05:15:20;;;;;;;5.32;2.53;;;17.00;93.80;;;;;;5023069;28;20102;-73
2022/07/02 05:17:46;;;;;;;4.53;2.20;;;17.30;93.90;;;;;;5005914;28;20500;-74
2022/07/02 05:20:11;;;;;;;2.63;1.80;;;17.60;93.90;;;;;;5027409;28;20525;-73
2022/07/02 05:22:37;;;;;;;5.00;1.95;;;17.90;94.40;;;;;;5025443;28;20088;-73
2022/07/02 05:25:02;;;;;;;5.93;1.75;;;18.20;94.50;;;;;;5022894;28;20032;-74
2022/07/02 05:27:28;;;;;;;5.10;1.58;;;18.50;94.50;;;;;;5007252;28;20026;-73
2022/07/02 05:29:53;;;;;;;3.03;1.58;;;18.70;93.70;;;;;;5018691;28;20032;-73
2022/07/02 05:32:19;;;;;;;4.45;1.55;;;18.80;90.20;;;;;;5022280;28;20029;-73
2022/07/02 05:34:45;;;;;;;4.10;1.67;;;19.00;91.60;;;;;;5040241;28;20108;-74
2022/07/02 05:37:10;;;;;;;8.98;1.65;;;19.30;92.60;;;;;;5026097;28;20052;-73
2022/07/02 05:39:36;;;;;;;4.82;1.88;;;19.70;92.40;;;;;;5025773;28;20036;-74
2022/07/02 05:42:01;;;;;;;4.43;1.50;;;19.90;92.80;;;;;;5021647;28;20017;-75
2022/07/02 05:44:27;;;;;;;3.40;1.42;;;19.90;91.50;;;;;;5027394;28;20129;-74
2022/07/02 05:46:52;;;;;;;2.17;1.60;;;20.10;91.40;;;;;;5022398;28;20061;-72
2022/07/02 05:49:18;;;;;;;5.07;1.83;;;20.40;92.20;;;;;;4995716;28;20036;-73
2022/07/02 05:51:43;;;;;;;4.63;1.63;;;20.30;91.30;;;;;;5008914;28;20032;-73
2022/07/02 05:54:10;;;;;;;2.35;1.38;;;21.00;92.20;;;;;;5024451;28;20078;-73
2022/07/02 05:56:35;;;;;;;3.53;1.35;;;21.40;91.60;;;;;;5027074;28;20393;-74
2022/07/02 05:59:01;;;;;;;4.85;1.38;;;21.70;90.90;;;;;;5009762;28;20032;-72
2022/07/02 06:01:27;;;;;;;3.15;1.30;;;22.00;91.10;;;;;;5021427;28;20037;-74
2022/07/02 06:03:53;;;;;;;2.78;1.58;;;21.90;90.50;;;;;;5007577;28;20045;-72
2022/07/02 06:09:02;;;;;;;1.40;1.30;;;22.60;90.20;;;;;;5024732;28;20028;-73
2022/07/02 06:11:29;;;;;;;3.03;1.25;;;22.60;86.50;;;;;;5009308;28;20120;-74
2022/07/02 06:13:55;;;;;;;1.52;1.17;;;22.60;89.00;;;;;;5008234;28;20032;-72
2022/07/02 06:16:20;;;;;;;3.63;1.10;;;22.80;78.50;;;;;;5022721;28;20029;-74
2022/07/02 06:18:46;;;;;;;3.65;1.20;;;22.50;85.40;;;;;;5022789;28;20120;-73
2022/07/02 06:21:12;;;;;;;2.15;1.33;;;22.50;85.90;;;;;;5025487;28;20073;-74
2022/07/02 06:23:37;;;;;;;3.45;1.20;;;23.20;85.30;;;;;;5027887;28;20102;-73
2022/07/02 06:26:03;;;;;;;3.22;1.60;;;23.00;84.00;;;;;;5006984;28;20029;-75
2022/07/02 06:28:28;;;;;;;3.33;1.50;;;23.30;76.50;;;;;;4994896;28;20039;-75
2022/07/02 06:30:54;;;;;;;3.45;1.42;;;22.90;73.70;;;;;;5019224;28;20025;-74
2022/07/02 06:33:20;;;;;;;3.75;1.25;;;22.30;75.40;;;;;;5009943;28;20120;-73
2022/07/02 06:35:45;;;;;;;1.60;1.38;;;23.10;82.10;;;;;;5018092;28;20112;-73
2022/07/02 06:38:11;;;;;;;4.47;1.48;;;23.00;78.00;;;;;;5022984;28;20182;-74
2022/07/02 06:40:37;;;;;;;2.25;1.20;;;23.80;80.10;;;;;;5021354;28;20090;-74
2022/07/02 06:43:03;;;;;;;2.45;1.10;;;24.30;80.80;;;;;;5022035;28;20497;-74
2022/07/02 06:45:28;;;;;;;1.65;1.08;;;24.10;79.60;;;;;;5003651;28;20031;-73
2022/07/02 06:47:54;;;;;;;2.97;1.15;;;25.10;77.60;;;;;;5020264;28;20048;-74
2022/07/02 06:50:20;;;;;;;3.47;1.00;;;24.60;76.60;;;;;;4993368;28;20029;-73
2022/07/02 06:52:45;;;;;;;5.38;1.10;;;24.80;74.40;;;;;;5024411;28;20395;-73
2022/07/02 06:55:11;;;;;;;2.40;1.02;;;24.70;76.30;;;;;;5022520;28;20054;-76
2022/07/02 06:57:37;;;;;;;2.45;1.10;;;25.10;71.40;;;;;;4990938;28;20032;-76
2022/07/02 07:00:04;;;;;;;2.92;1.30;;;25.40;72.60;;;;;;5009942;28;20030;-74
2022/07/02 07:02:29;;;;;;;2.25;1.20;;;25.70;72.90;;;;;;4992752;28;20112;-74
2022/07/02 07:04:55;;;;;;;4.85;1.20;;;25.30;72.90;;;;;;5004471;28;20048;-74
2022/07/02 07:07:26;;;;;;;0.98;0.85;;;25.80;71.50;;;;;;5023897;28;20484;-74
2022/07/02 07:09:52;;;;;;;2.70;1.08;;;25.80;71.90;;;;;;5022916;28;20116;-74
2022/07/02 07:12:18;;;;;;;2.40;1.13;;;25.40;64.40;;;;;;5009336;28;20491;-74
2022/07/02 07:14:43;;;;;;;1.95;0.90;;;25.10;72.30;;;;;;5011640;28;20029;-74
2022/07/02 07:17:09;;;;;;;4.30;1.23;;;26.20;69.80;;;;;;5020512;28;20052;-76
2022/07/02 07:19:34;;;;;;;3.53;0.95;;;26.40;70.10;;;;;;5021685;28;20032;-74
2022/07/02 07:22:00;;;;;;;3.85;1.38;;;27.20;63.10;;;;;;5043016;28;20100;-75
2022/07/02 07:24:26;;;;;;;1.52;1.00;;;26.70;68.70;;;;;;5023655;28;20036;-75
2022/07/02 07:26:52;;;;;;;6.13;1.20;;;27.60;66.20;;;;;;5004224;28;20037;-75
2022/07/02 07:29:18;;;;;;;2.08;0.90;;;27.90;64.60;;;;;;4994388;28;20033;-75
2022/07/02 07:31:44;;;;;;;3.72;1.08;;;28.10;64.30;;;;;;4990458;28;20037;-75
2022/07/02 07:34:10;;;;;;;6.00;0.90;;;27.90;59.30;;;;;;5020268;28;20839;-75
2022/07/02 07:36:35;;;;;;;2.55;0.88;;;27.80;61.90;;;;;;5022136;28;20025;-74
2022/07/02 07:39:02;;;;;;;7.55;0.80;;;27.90;63.50;;;;;;5019567;28;20033;-75
2022/07/02 07:41:28;;;;;;;1.20;0.70;;;28.00;59.40;;;;;;5003737;28;20025;-74
2022/07/02 07:43:53;;;;;;;1.88;0.90;;;27.50;57.50;;;;;;5006135;28;20031;-74
2022/07/02 07:46:20;;;;;;;1.50;0.80;;;27.40;56.70;;;;;;5004981;28;20037;-74
2022/07/02 07:48:45;;;;;;;0.93;0.65;;;27.40;60.30;;;;;;5004483;28;20571;-74
2022/07/02 07:51:11;;;;;;;1.92;0.50;;;27.50;57.50;;;;;;5018042;28;20036;-76
2022/07/02 07:53:37;;;;;;;2.22;0.68;;;27.50;56.70;;;;;;4994677;28;20037;-75
2022/07/02 07:56:02;;;;;;;1.92;0.60;;;27.90;60.40;;;;;;5020132;28;20557;-74
2022/07/02 07:58:29;;;;;;;2.53;0.68;;;28.50;59.00;;;;;;5005675;28;20400;-73
2022/07/02 08:00:55;;;;;;;4.05;0.70;;;28.70;57.30;;;;;;5019854;28;20036;-74
2022/07/02 08:03:20;;;;;;;1.92;0.70;;;28.10;53.30;;;;;;5019334;28;20432;-74
2022/07/02 08:05:47;;;;;;;3.50;0.75;;;27.60;53.20;;;;;;5020067;28;20453;-74
2022/07/02 08:08:15;;;;;;;3.60;0.60;;;28.30;54.10;;;;;;5026060;28;20051;-74
2022/07/02 08:10:41;;;;;;;4.22;0.70;;;28.40;54.00;;;;;;5011541;28;20043;-75
2022/07/02 08:13:06;;;;;;;2.90;0.70;;;27.90;55.00;;;;;;5004473;28;20124;-75
2022/07/02 08:15:32;;;;;;;2.53;0.52;;;28.10;55.10;;;;;;5005774;28;20129;-74
2022/07/02 08:17:58;;;;;;;1.10;0.50;;;28.50;53.10;;;;;;5004841;28;20029;-75
2022/07/02 08:20:23;;;;;;;1.60;0.60;;;28.10;52.70;;;;;;5023016;28;20025;-74
2022/07/02 08:22:50;;;;;;;1.75;0.60;;;29.10;54.60;;;;;;5018703;28;20040;-74
2022/07/02 08:25:16;;;;;;;2.40;0.60;;;28.70;51.80;;;;;;5004521;28;20057;-75
2022/07/02 08:27:42;;;;;;;2.30;0.50;;;29.00;54.30;;;;;;5005990;28;20451;-75
2022/07/02 08:30:08;;;;;;;3.28;0.73;;;30.10;52.00;;;;;;5003471;28;20033;-76
2022/07/02 08:32:33;;;;;;;3.25;0.90;;;30.10;52.10;;;;;;5008927;28;20028;-74
2022/07/02 08:34:59;;;;;;;2.10;0.80;;;30.30;50.70;;;;;;5019858;28;20017;-74
2022/07/02 08:37:25;;;;;;;1.30;0.68;;;30.10;50.90;;;;;;5008527;28;20084;-75
2022/07/02 08:39:50;;;;;;;0.35;0.35;;;30.40;50.70;;;;;;5019591;28;20690;-76
2022/07/02 08:42:29;;;;;;;3.92;0.50;;;30.80;49.20;;;;;;5007190;28;20087;-76
2022/07/02 08:45:00;;;;;;;1.63;0.52;;;30.70;48.00;;;;;;5005449;28;20036;-74
2022/07/02 08:47:26;;;;;;;3.58;0.77;;;30.10;49.60;;;;;;5022231;28;20037;-75
2022/07/02 08:49:52;;;;;;;0.93;0.40;;;30.50;48.40;;;;;;5003881;28;20094;-75
2022/07/02 08:52:18;;;;;;;3.47;0.50;;;30.70;47.10;;;;;;5025806;28;20029;-75
2022/07/02 08:54:44;;;;;;;1.85;0.32;;;30.30;48.50;;;;;;5022621;28;20034;-75
2022/07/02 08:57:11;;;;;;;0.75;0.50;;;30.80;48.40;;;;;;5021776;28;20374;-75
2022/07/02 08:59:37;;;;;;;0.38;0.32;;;30.90;47.80;;;;;;5023747;28;20120;-77
2022/07/02 09:02:02;;;;;;;2.60;0.50;;;30.50;47.70;;;;;;4982988;28;20140;-76
2022/07/02 09:04:28;;;;;;;0.98;0.30;;;30.60;46.10;;;;;;5023297;28;20037;-75
2022/07/02 09:06:57;;;;;;;0.90;0.57;;;30.70;46.50;;;;;;5003483;28;20033;-75
2022/07/02 09:09:26;;;;;;;1.58;0.52;;;30.90;47.90;;;;;;5020471;28;20029;-79
2022/07/02 09:11:52;;;;;;;1.30;0.43;;;31.60;46.30;;;;;;5003103;28;20037;-78
2022/07/02 09:14:17;;;;;;;1.00;0.30;;;31.80;46.70;;;;;;5012370;28;20033;-79
2022/07/02 09:16:43;;;;;;;2.22;0.45;;;32.00;46.50;;;;;;4994821;28;20034;-79
2022/07/02 09:19:08;;;;;;;2.75;0.32;;;32.30;44.40;;;;;;5024850;28;20025;-78
2022/07/02 09:22:00;;;;;;;4.05;0.65;;;32.00;43.70;;;;;;5023826;28;20033;-78
2022/07/02 09:24:31;;;;;;;3.58;0.68;;;31.90;44.00;;;;;;5026276;28;20167;-78
2022/07/02 09:27:07;;;;;;;1.63;0.40;;;32.10;45.10;;;;;;5041164;28;20030;-78
2022/07/02 09:29:52;;;;;;;1.98;0.47;;;31.90;44.80;;;;;;5010505;28;20128;-77
2022/07/02 09:32:18;;;;;;;4.28;0.50;;;32.40;44.70;;;;;;5024256;28;20048;-78
2022/07/02 09:34:51;;;;;;;2.67;0.40;;;32.20;44.70;;;;;;4996176;28;20029;-78
2022/07/02 09:37:20;;;;;;;2.22;0.40;;;32.30;42.60;;;;;;5024809;28;20045;-77
2022/07/02 09:39:47;;;;;;;2.67;0.40;;;31.60;41.30;;;;;;4997772;28;20033;-77
2022/07/02 09:42:29;;;;;;;1.05;0.60;;;31.80;43.60;;;;;;5022155;28;20147;-78
2022/07/02 09:44:55;;;;;;;1.85;0.50;;;32.10;44.20;;;;;;5007221;28;20044;-78
2022/07/02 09:47:33;;;;;;;2.90;0.57;;;32.70;43.10;;;;;;4996862;28;20044;-78
2022/07/02 09:50:02;;;;;;;1.20;0.40;;;33.00;41.80;;;;;;5040357;28;20033;-77
2022/07/02 09:52:28;;;;;;;2.75;0.50;;;32.60;41.60;;;;;;5011822;28;20052;-77
2022/07/02 09:54:53;;;;;;;4.22;0.50;;;32.80;42.20;;;;;;5025971;28;20038;-77
2022/07/02 09:57:19;;;;;;;0.45;0.25;;;32.60;41.80;;;;;;5010522;28;20037;-77
2022/07/02 09:59:44;;;;;;;3.20;0.50;;;32.40;41.70;;;;;;5023721;28;20044;-78
2022/07/02 10:02:24;;;;;;;1.70;0.47;;;32.40;42.40;;;;;;5024551;28;20021;-77
2022/07/02 10:04:51;;;;;;;1.63;0.43;;;32.60;42.40;;;;;;5008053;28;20443;-77
2022/07/02 10:07:16;;;;;;;0.85;0.43;;;32.30;42.20;;;;;;5022501;28;20037;-78
2022/07/02 10:09:42;;;;;;;2.95;0.40;;;32.50;42.10;;;;;;4996466;28;20044;-78
2022/07/02 10:12:07;;;;;;;1.40;0.55;;;32.90;40.60;;;;;;5022050;28;20037;-78
2022/07/02 10:14:34;;;;;;;2.67;0.30;;;33.00;42.30;;;;;;4992272;28;20044;-78
2022/07/02 10:17:01;;;;;;;3.10;0.40;;;33.40;42.50;;;;;;5009558;28;20064;-78
2022/07/02 10:19:27;;;;;;;1.05;0.45;;;33.60;41.80;;;;;;4996315;28;20481;-78
2022/07/02 10:21:52;;;;;;;1.63;0.43;;;33.40;40.00;;;;;;4991525;28;20408;-76
2022/07/02 10:24:19;;;;;;;1.17;0.95;;;33.50;42.00;;;;;;5004628;28;20048;-79
2022/07/02 10:26:44;;;;;;;0.40;0.40;;;34.10;41.90;;;;;;5005478;28;20457;-78
2022/07/02 10:29:10;;;;;;;2.50;0.40;;;34.30;41.10;;;;;;5010962;28;20103;-79
2022/07/02 10:31:41;;;;;;;0.63;0.50;;;34.20;41.00;;;;;;5026346;28;20345;-78
2022/07/02 10:34:48;;;;;;;1.63;0.60;;;34.60;40.10;;;;;;5023587;28;20030;-78
2022/07/02 10:37:15;;;;;;;3.72;0.47;;;34.80;39.90;;;;;;4948368;28;20546;-78
2022/07/02 10:39:42;;;;;;;2.20;0.50;;;35.30;37.40;;;;;;4931828;28;20031;-77
2022/07/02 10:42:08;;;;;;;1.17;0.60;;;35.30;38.70;;;;;;4983545;28;20033;-77
2022/07/02 10:44:40;;;;;;;0.90;0.40;;;35.10;38.70;;;;;;4994362;28;20055;-77
2022/07/02 10:47:16;;;;;;;0.43;0.40;;;34.90;39.30;;;;;;5003555;28;20064;-77
2022/07/02 10:49:41;;;;;;;2.58;1.02;;;35.10;38.70;;;;;;5006094;28;20021;-78
2022/07/02 10:52:07;;;;;;;1.02;0.50;;;34.80;39.10;;;;;;5007033;28;20119;-77
2022/07/02 10:54:33;;;;;;;0.60;0.50;;;35.10;37.60;;;;;;4994960;28;20108;-77
2022/07/02 10:56:59;;;;;;;1.75;0.57;;;35.20;38.10;;;;;;5021638;28;20044;-78
2022/07/02 10:59:33;;;;;;;2.08;0.50;;;35.20;38.30;;;;;;5021583;28;20078;-77
2022/07/02 11:02:00;;;;;;;1.02;0.68;;;35.10;39.30;;;;;;5007533;28;20086;-77
2022/07/02 11:04:26;;;;;;;5.45;1.25;;;35.20;38.90;;;;;;5021623;28;20815;-76
2022/07/02 11:07:03;;;;;;;1.80;0.60;;;35.70;36.80;;;;;;4988609;28;20108;-77
2022/07/02 11:09:31;;;;;;;1.02;0.40;;;35.60;36.20;;;;;;4992824;28;20049;-77
2022/07/02 11:11:59;;;;;;;1.13;0.50;;;35.20;37.20;;;;;;5020957;28;20033;-77
2022/07/02 11:14:26;;;;;;;1.75;0.55;;;35.10;36.70;;;;;;5023769;28;20056;-77
2022/07/02 11:16:52;;;;;;;2.53;0.47;;;35.20;37.10;;;;;;5018897;28;20075;-77
2022/07/02 11:19:28;;;;;;;1.80;0.55;;;35.10;38.00;;;;;;4995055;28;20393;-77
2022/07/02 11:21:55;;;;;;;0.75;0.43;;;35.30;37.50;;;;;;5038189;28;20025;-77
2022/07/02 11:24:22;;;;;;;2.85;0.90;;;35.30;38.60;;;;;;5022676;28;20404;-77
2022/07/02 11:26:47;;;;;;;27.65;2.67;;;35.40;38.80;;;;;;5018724;28;20040;-77
2022/07/02 11:29:13;;;;;;;1.50;0.60;;;35.50;38.20;;;;;;5008927;28;20029;-77
2022/07/02 11:31:48;;;;;;;1.20;0.63;;;35.60;38.40;;;;;;4999901;28;20120;-77
2022/07/02 11:34:16;;;;;;;1.08;0.40;;;35.80;37.90;;;;;;5021814;28;20121;-77
2022/07/02 11:36:41;;;;;;;0.82;0.60;;;35.70;36.20;;;;;;5020737;28;20025;-76
2022/07/02 11:39:19;;;;;;;0.70;0.50;;;35.60;35.80;;;;;;5000531;28;20485;-77
2022/07/02 11:41:50;;;;;;;0.44;0.40;;;35.70;36.70;;;;;;4491949;28;10000482;-76
2022/07/02 11:44:24;;;;;;;0.50;0.40;;;35.90;36.60;;;;;;5035885;28;20277;-77
2022/07/02 11:46:56;;;;;;;2.58;0.65;;;36.10;36.80;;;;;;5002495;28;20041;-77
2022/07/02 11:49:23;;;;;;;1.38;0.60;;;36.20;36.00;;;;;;5005900;28;20071;-77
2022/07/02 11:51:50;;;;;;;16.80;1.52;;;36.50;34.60;;;;;;4985962;28;20467;-76
2022/07/02 11:54:15;;;;;;;1.85;0.77;;;36.40;36.80;;;;;;5006491;28;20037;-76
2022/07/02 11:56:42;;;;;;;1.42;0.50;;;36.70;35.70;;;;;;5006873;28;20032;-76
2022/07/02 11:59:09;;;;;;;0.73;0.60;;;36.40;35.00;;;;;;5018181;28;20056;-76
2022/07/02 12:01:35;;;;;;;1.15;0.45;;;36.30;36.10;;;;;;5005368;28;20139;-76
2022/07/02 12:04:04;;;;;;;2.53;0.50;;;36.20;35.40;;;;;;5006431;28;20116;-76
2022/07/02 12:06:33;;;;;;;2.00;0.55;;;36.20;35.60;;;;;;5018492;28;20397;-77
2022/07/02 12:08:59;;;;;;;4.53;0.40;;;36.10;34.40;;;;;;5001727;28;20083;-76
2022/07/02 12:11:25;;;;;;;2.08;0.60;;;36.20;35.60;;;;;;5006716;28;20029;-76
2022/07/02 12:13:51;;;;;;;0.40;0.40;;;36.20;35.50;;;;;;5001018;28;20538;-76
2022/07/02 12:16:24;;;;;;;1.45;0.50;;;36.20;35.60;;;;;;5006190;28;20068;-76
2022/07/02 12:19:16;;;;;;;0.60;0.47;;;36.30;35.10;;;;;;5004963;28;20558;-77
2022/07/02 12:21:43;;;;;;;1.25;0.65;;;36.50;36.60;;;;;;5014900;28;20034;-77
2022/07/02 12:24:25;;;;;;;3.85;0.60;;;36.60;35.10;;;;;;5009562;28;20048;-76
2022/07/02 12:26:53;;;;;;;1.30;0.40;;;36.60;35.50;;;;;;5009003;28;20078;-77
2022/07/02 12:32:10;;;;;;;0.90;0.50;;;36.60;35.80;;;;;;5012687;28;20125;-76
2022/07/02 12:34:43;;;;;;;0.95;0.60;;;36.50;35.00;;;;;;4996078;28;20056;-76
2022/07/02 12:37:24;;;;;;;1.05;0.55;;;36.50;35.70;;;;;;5011069;28;20045;-76
2022/07/02 12:39:50;;;;;;;1.33;0.50;;;36.80;34.70;;;;;;5027428;28;20559;-76
2022/07/02 12:42:20;;;;;;;2.80;0.50;;;37.10;34.70;;;;;;5008982;28;20037;-77
2022/07/02 12:44:56;;;;;;;1.98;0.50;;;37.10;33.80;;;;;;5010042;28;20044;-77
2022/07/02 12:47:40;;;;;;;0.77;0.43;;;36.90;34.90;;;;;;5009963;28;20025;-77
2022/07/02 12:50:09;;;;;;;2.70;0.60;;;36.90;35.30;;;;;;5011799;28;20032;-77
2022/07/02 12:52:48;;;;;;;1.25;0.60;;;37.10;34.40;;;;;;5024959;28;20117;-77